sensor_id;sensor_type;location;lat;lon;timestamp;pressure;altitude;pressure_sealevel;temperature;humidity
11114;BME280;5610;52.154;9.198;2022-10-31T00:00:37;101122.53;;;14.15;100.00
11114;BME280;5610;52.154;9.198;2022-10-31T00:03:24;101125.03;;;14.18;100.00
11114;BME280;5610;52.154;9.198;2022-10-31T00:06:10;101136.81;;;14.15;100.00
11114;BME280;5610;52.154;9.198;2022-10-31T00:08:57;101137.03;;;14.12;100.00
11114;BME280;5610;52.154;9.198;2022-10-31T00:11:43;101141.41;;;14.13;100.00
11114;BME280;5610;52.154;9.198;2022-10-31T00:14:28;101147.63;;;14.14;100.00
11114;BME280;5610;52.154;9.198;2022-10-31T00:17:15;101146.25;;;14.21;100.00
11114;BME280;5610;52.154;9.198;2022-10-31T00:20:00;101142.41;;;14.25;100.00
11114;BME280;5610;52.154;9.198;2022-10-31T00:22:45;101143.69;;;14.19;100.00
11114;BME280;5610;52.154;9.198;2022-10-31T00:25:34;101152.56;;;14.07;100.00
11114;BME280;5610;52.154;9.198;2022-10-31T00:28:19;101148.38;;;14.03;100.00
11114;BME280;5610;52.154;9.198;2022-10-31T00:31:07;101158.31;;;14.01;100.00
11114;BME280;5610;52.154;9.198;2022-10-31T00:33:54;101163.78;;;13.99;100.00
11114;BME280;5610;52.154;9.198;2022-10-31T00:36:39;101154.25;;;14.08;100.00
11114;BME280;5610;52.154;9.198;2022-10-31T00:39:29;101166.72;;;14.22;100.00
11114;BME280;5610;52.154;9.198;2022-10-31T00:42:14;101169.75;;;14.43;100.00
11114;BME280;5610;52.154;9.198;2022-10-31T00:45:01;101174.94;;;14.59;100.00
11114;BME280;5610;52.154;9.198;2022-10-31T00:47:46;101169.69;;;14.70;100.00
11114;BME280;5610;52.154;9.198;2022-10-31T00:50:33;101179.75;;;14.79;100.00
11114;BME280;5610;52.154;9.198;2022-10-31T00:53:18;101177.84;;;14.81;100.00
11114;BME280;5610;52.154;9.198;2022-10-31T00:56:05;101183.84;;;14.84;100.00
11114;BME280;5610;52.154;9.198;2022-10-31T00:58:51;101181.03;;;14.86;100.00
11114;BME280;5610;52.154;9.198;2022-10-31T01:01:37;101183.84;;;14.84;100.00
11114;BME280;5610;52.154;9.198;2022-10-31T01:04:23;101186.94;;;14.78;100.00
11114;BME280;5610;52.154;9.198;2022-10-31T01:07:10;101192.44;;;14.77;100.00
11114;BME280;5610;52.154;9.198;2022-10-31T01:09:56;101193.81;;;14.70;100.00
11114;BME280;5610;52.154;9.198;2022-10-31T01:12:43;101199.00;;;14.60;100.00
11114;BME280;5610;52.154;9.198;2022-10-31T01:15:28;101199.53;;;14.52;100.00
11114;BME280;5610;52.154;9.198;2022-10-31T01:18:13;101195.72;;;14.42;100.00
11114;BME280;5610;52.154;9.198;2022-10-31T01:21:04;101192.94;;;14.31;100.00
11114;BME280;5610;52.154;9.198;2022-10-31T01:23:53;101191.81;;;14.21;100.00
11114;BME280;5610;52.154;9.198;2022-10-31T01:26:38;101198.66;;;14.12;100.00
11114;BME280;5610;52.154;9.198;2022-10-31T01:29:24;101195.84;;;14.01;100.00
11114;BME280;5610;52.154;9.198;2022-10-31T01:32:09;101193.91;;;13.90;100.00
11114;BME280;5610;52.154;9.198;2022-10-31T01:34:55;101205.00;;;13.84;100.00
11114;BME280;5610;52.154;9.198;2022-10-31T01:37:40;101208.19;;;13.77;100.00
11114;BME280;5610;52.154;9.198;2022-10-31T01:40:30;101206.78;;;13.71;100.00
11114;BME280;5610;52.154;9.198;2022-10-31T01:43:15;101207.00;;;13.68;100.00
11114;BME280;5610;52.154;9.198;2022-10-31T01:46:01;101201.19;;;13.61;100.00
11114;BME280;5610;52.154;9.198;2022-10-31T01:48:46;101204.44;;;13.52;100.00
11114;BME280;5610;52.154;9.198;2022-10-31T01:51:35;101201.97;;;13.49;100.00
11114;BME280;5610;52.154;9.198;2022-10-31T01:54:23;101203.31;;;13.42;100.00
11114;BME280;5610;52.154;9.198;2022-10-31T01:57:14;101209.91;;;13.36;100.00
11114;BME280;5610;52.154;9.198;2022-10-31T02:00:03;101201.31;;;13.31;100.00
11114;BME280;5610;52.154;9.198;2022-10-31T02:02:57;101198.00;;;13.28;100.00
11114;BME280;5610;52.154;9.198;2022-10-31T02:05:43;101203.72;;;13.22;100.00
11114;BME280;5610;52.154;9.198;2022-10-31T02:08:30;101203.22;;;13.15;100.00
11114;BME280;5610;52.154;9.198;2022-10-31T02:11:16;101189.09;;;13.13;100.00
11114;BME280;5610;52.154;9.198;2022-10-31T02:14:03;101199.31;;;13.06;100.00
11114;BME280;5610;52.154;9.198;2022-10-31T02:16:48;101202.97;;;13.05;100.00
11114;BME280;5610;52.154;9.198;2022-10-31T02:19:40;101205.31;;;13.10;100.00
11114;BME280;5610;52.154;9.198;2022-10-31T02:22:40;101208.84;;;13.10;100.00
11114;BME280;5610;52.154;9.198;2022-10-31T02:25:51;101200.56;;;13.15;100.00
11114;BME280;5610;52.154;9.198;2022-10-31T02:28:57;101207.72;;;13.14;100.00
11114;BME280;5610;52.154;9.198;2022-10-31T02:31:56;101195.47;;;13.10;100.00
11114;BME280;5610;52.154;9.198;2022-10-31T02:34:49;101199.22;;;13.08;100.00
11114;BME280;5610;52.154;9.198;2022-10-31T02:37:42;101196.66;;;13.06;100.00
11114;BME280;5610;52.154;9.198;2022-10-31T02:40:35;101199.31;;;13.06;100.00
11114;BME280;5610;52.154;9.198;2022-10-31T02:43:56;101200.38;;;13.04;100.00
11114;BME280;5610;52.154;9.198;2022-10-31T02:46:49;101202.75;;;13.08;100.00
11114;BME280;5610;52.154;9.198;2022-10-31T02:49:41;101201.03;;;13.07;100.00
11114;BME280;5610;52.154;9.198;2022-10-31T02:52:30;101196.66;;;13.06;100.00
11114;BME280;5610;52.154;9.198;2022-10-31T02:55:49;101197.78;;;13.02;100.00
11114;BME280;5610;52.154;9.198;2022-10-31T02:58:38;101197.22;;;12.97;100.00
11114;BME280;5610;52.154;9.198;2022-10-31T03:01:33;101202.09;;;12.90;100.00
11114;BME280;5610;52.154;9.198;2022-10-31T03:04:41;101199.91;;;12.83;100.00
11114;BME280;5610;52.154;9.198;2022-10-31T03:07:38;101200.47;;;12.74;100.00
11114;BME280;5610;52.154;9.198;2022-10-31T03:10:34;101212.50;;;12.67;100.00
11114;BME280;5610;52.154;9.198;2022-10-31T03:13:24;101213.72;;;12.61;100.00
11114;BME280;5610;52.154;9.198;2022-10-31T03:16:14;101212.97;;;12.59;100.00
11114;BME280;5610;52.154;9.198;2022-10-31T03:19:05;101214.97;;;12.55;100.00
11114;BME280;5610;52.154;9.198;2022-10-31T03:21:55;101221.34;;;12.53;100.00
11114;BME280;5610;52.154;9.198;2022-10-31T03:24:43;101220.47;;;12.52;100.00
11114;BME280;5610;52.154;9.198;2022-10-31T03:27:32;101227.75;;;12.50;100.00
11114;BME280;5610;52.154;9.198;2022-10-31T03:30:18;101227.25;;;12.44;100.00
11114;BME280;5610;52.154;9.198;2022-10-31T03:33:16;101230.69;;;12.46;100.00
11114;BME280;5610;52.154;9.198;2022-10-31T03:36:05;101236.88;;;12.46;100.00
11114;BME280;5610;52.154;9.198;2022-10-31T03:38:54;101235.16;;;12.45;100.00
11114;BME280;5610;52.154;9.198;2022-10-31T03:41:42;101233.56;;;12.43;100.00
11114;BME280;5610;52.154;9.198;2022-10-31T03:44:32;101239.75;;;12.43;100.00
11114;BME280;5610;52.154;9.198;2022-10-31T03:47:19;101242.53;;;12.42;100.00
11114;BME280;5610;52.154;9.198;2022-10-31T03:50:08;101245.97;;;12.44;100.00
11114;BME280;5610;52.154;9.198;2022-10-31T03:52:57;101243.19;;;12.45;100.00
11114;BME280;5610;52.154;9.198;2022-10-31T03:55:49;101251.03;;;12.48;100.00
11114;BME280;5610;52.154;9.198;2022-10-31T03:58:39;101244.84;;;12.48;100.00
11114;BME280;5610;52.154;9.198;2022-10-31T04:01:27;101254.47;;;12.50;100.00
11114;BME280;5610;52.154;9.198;2022-10-31T04:04:15;101256.28;;;12.50;100.00
11114;BME280;5610;52.154;9.198;2022-10-31T04:07:01;101249.28;;;12.47;100.00
11114;BME280;5610;52.154;9.198;2022-10-31T04:09:49;101258.38;;;12.45;100.00
11114;BME280;5610;52.154;9.198;2022-10-31T04:12:39;101254.19;;;12.41;100.00
11114;BME280;5610;52.154;9.198;2022-10-31T04:15:38;101258.16;;;12.33;100.00
11114;BME280;5610;52.154;9.198;2022-10-31T04:18:25;101255.91;;;12.26;100.00
11114;BME280;5610;52.154;9.198;2022-10-31T04:21:10;101250.09;;;12.19;100.00
11114;BME280;5610;52.154;9.198;2022-10-31T04:23:56;101258.47;;;12.13;100.00
11114;BME280;5610;52.154;9.198;2022-10-31T04:26:44;101252.38;;;11.95;100.00
11114;BME280;5610;52.154;9.198;2022-10-31T04:29:32;101249.03;;;11.92;100.00
11114;BME280;5610;52.154;9.198;2022-10-31T04:32:17;101251.59;;;11.93;100.00
11114;BME280;5610;52.154;9.198;2022-10-31T04:35:03;101249.94;;;11.91;100.00
11114;BME280;5610;52.154;9.198;2022-10-31T04:37:48;101254.81;;;11.84;100.00
11114;BME280;5610;52.154;9.198;2022-10-31T04:40:34;101261.56;;;11.74;100.00
11114;BME280;5610;52.154;9.198;2022-10-31T04:43:51;101250.97;;;11.72;100.00
11114;BME280;5610;52.154;9.198;2022-10-31T04:46:38;101259.94;;;11.71;100.00
11114;BME280;5610;52.154;9.198;2022-10-31T04:49:24;101251.25;;;11.83;100.00
11114;BME280;5610;52.154;9.198;2022-10-31T04:52:10;101253.41;;;11.93;100.00
11114;BME280;5610;52.154;9.198;2022-10-31T04:54:55;101262.94;;;11.97;100.00
11114;BME280;5610;52.154;9.198;2022-10-31T04:58:00;101262.69;;;12.01;100.00
11114;BME280;5610;52.154;9.198;2022-10-31T05:00:46;101251.06;;;12.02;100.00
11114;BME280;5610;52.154;9.198;2022-10-31T05:03:33;101257.34;;;12.01;100.00
11114;BME280;5610;52.154;9.198;2022-10-31T05:06:18;101248.50;;;12.01;100.00
11114;BME280;5610;52.154;9.198;2022-10-31T05:09:04;101250.66;;;11.94;100.00
11114;BME280;5610;52.154;9.198;2022-10-31T05:11:49;101247.97;;;11.94;100.00
11114;BME280;5610;52.154;9.198;2022-10-31T05:15:07;101249.94;;;11.91;100.00
11114;BME280;5610;52.154;9.198;2022-10-31T05:18:12;101244.13;;;11.84;100.00
11114;BME280;5610;52.154;9.198;2022-10-31T05:21:17;101252.19;;;11.82;100.00
11114;BME280;5610;52.154;9.198;2022-10-31T05:24:08;101252.59;;;11.75;100.00
11114;BME280;5610;52.154;9.198;2022-10-31T05:26:56;101249.41;;;11.68;100.00
11114;BME280;5610;52.154;9.198;2022-10-31T05:29:41;101246.84;;;11.67;100.00
11114;BME280;5610;52.154;9.198;2022-10-31T05:32:27;101249.69;;;11.64;100.00
11114;BME280;5610;52.154;9.198;2022-10-31T05:35:39;101240.56;;;11.52;100.00
11114;BME280;5610;52.154;9.198;2022-10-31T05:38:41;101250.63;;;11.47;100.00
11114;BME280;5610;52.154;9.198;2022-10-31T05:41:44;101246.41;;;11.43;100.00
11114;BME280;5610;52.154;9.198;2022-10-31T05:44:34;101249.25;;;11.40;100.00
11114;BME280;5610;52.154;9.198;2022-10-31T05:47:41;101247.63;;;11.37;100.00
11114;BME280;5610;52.154;9.198;2022-10-31T05:50:47;101239.75;;;11.34;100.00
11114;BME280;5610;52.154;9.198;2022-10-31T05:53:33;101238.03;;;11.33;100.00
11114;BME280;5610;52.154;9.198;2022-10-31T05:56:20;101251.16;;;11.38;100.00
11114;BME280;5610;52.154;9.198;2022-10-31T05:59:05;101239.94;;;11.31;100.00
11114;BME280;5610;52.154;9.198;2022-10-31T06:01:51;101239.22;;;11.27;100.00
11114;BME280;5610;52.154;9.198;2022-10-31T06:05:08;101244.56;;;11.27;100.00
11114;BME280;5610;52.154;9.198;2022-10-31T06:07:53;101239.22;;;11.27;100.00
11114;BME280;5610;52.154;9.198;2022-10-31T06:10:40;101243.66;;;11.28;100.00
11114;BME280;5610;52.154;9.198;2022-10-31T06:13:26;101236.56;;;11.27;100.00
11114;BME280;5610;52.154;9.198;2022-10-31T06:16:18;101248.28;;;11.25;100.00
11114;BME280;5610;52.154;9.198;2022-10-31T06:19:04;101250.84;;;11.26;100.00
11114;BME280;5610;52.154;9.198;2022-10-31T06:21:49;101249.00;;;11.28;100.00
11114;BME280;5610;52.154;9.198;2022-10-31T06:24:34;101263.00;;;11.32;100.00
11114;BME280;5610;52.154;9.198;2022-10-31T06:27:35;101252.53;;;11.29;100.00
11114;BME280;5610;52.154;9.198;2022-10-31T06:30:29;101258.53;;;11.33;100.00
11114;BME280;5610;52.154;9.198;2022-10-31T06:33:14;101268.00;;;11.38;100.00
11114;BME280;5610;52.154;9.198;2022-10-31T06:36:09;101264.91;;;11.46;100.00
11114;BME280;5610;52.154;9.198;2022-10-31T06:38:55;101271.53;;;11.54;100.00
11114;BME280;5610;52.154;9.198;2022-10-31T06:41:41;101267.00;;;11.57;100.00
11114;BME280;5610;52.154;9.198;2022-10-31T06:44:28;101267.44;;;11.65;100.00
11114;BME280;5610;52.154;9.198;2022-10-31T06:47:14;101264.66;;;11.66;100.00
11114;BME280;5610;52.154;9.198;2022-10-31T06:50:13;101267.09;;;11.71;100.00
11114;BME280;5610;52.154;9.198;2022-10-31T06:52:58;101268.72;;;11.73;100.00
11114;BME280;5610;52.154;9.198;2022-10-31T06:55:43;101274.75;;;11.77;100.00
11114;BME280;5610;52.154;9.198;2022-10-31T06:58:30;101278.91;;;11.82;100.00
11114;BME280;5610;52.154;9.198;2022-10-31T07:01:19;101273.41;;;11.86;100.00
11114;BME280;5610;52.154;9.198;2022-10-31T07:04:08;101285.63;;;11.90;100.00
11114;BME280;5610;52.154;9.198;2022-10-31T07:06:54;101280.88;;;11.95;100.00
11114;BME280;5610;52.154;9.198;2022-10-31T07:09:39;101289.50;;;12.00;100.00
11114;BME280;5610;52.154;9.198;2022-10-31T07:12:26;101291.72;;;12.07;100.00
11114;BME280;5610;52.154;9.198;2022-10-31T07:15:15;101296.63;;;12.15;100.00
11114;BME280;5610;52.154;9.198;2022-10-31T07:18:01;101301.53;;;12.23;100.00
11114;BME280;5610;52.154;9.198;2022-10-31T07:20:49;101301.84;;;12.32;100.00
11114;BME280;5610;52.154;9.198;2022-10-31T07:23:35;101303.91;;;12.43;100.00
11114;BME280;5610;52.154;9.198;2022-10-31T07:26:50;101303.09;;;12.57;100.00
11114;BME280;5610;52.154;9.198;2022-10-31T07:29:35;101306.75;;;12.70;100.00
11114;BME280;5610;52.154;9.198;2022-10-31T07:32:21;101307.91;;;12.80;100.00
11114;BME280;5610;52.154;9.198;2022-10-31T07:35:12;101303.56;;;12.93;100.00
11114;BME280;5610;52.154;9.198;2022-10-31T07:38:10;101302.91;;;13.04;100.00
11114;BME280;5610;52.154;9.198;2022-10-31T07:40:56;101309.19;;;13.17;100.00
11114;BME280;5610;52.154;9.198;2022-10-31T07:43:42;101299.31;;;13.34;100.00
11114;BME280;5610;52.154;9.198;2022-10-31T07:46:46;101304.19;;;13.56;100.00
11114;BME280;5610;52.154;9.198;2022-10-31T07:49:59;101307.31;;;13.77;100.00
11114;BME280;5610;52.154;9.198;2022-10-31T07:53:05;101310.69;;;13.93;100.00
11114;BME280;5610;52.154;9.198;2022-10-31T07:56:12;101301.25;;;14.14;100.00
11114;BME280;5610;52.154;9.198;2022-10-31T07:58:58;101301.19;;;14.28;100.00
11114;BME280;5610;52.154;9.198;2022-10-31T08:01:43;101299.31;;;14.43;100.00
11114;BME280;5610;52.154;9.198;2022-10-31T08:04:54;101298.22;;;14.60;100.00
11114;BME280;5610;52.154;9.198;2022-10-31T08:07:59;101289.91;;;14.50;100.00
11114;BME280;5610;52.154;9.198;2022-10-31T08:10:44;101291.91;;;14.61;100.00
11114;BME280;5610;52.154;9.198;2022-10-31T08:13:31;101286.44;;;14.75;100.00
11114;BME280;5610;52.154;9.198;2022-10-31T08:16:17;101281.84;;;14.90;100.00
11114;BME280;5610;52.154;9.198;2022-10-31T08:19:10;101278.31;;;15.02;100.00
11114;BME280;5610;52.154;9.198;2022-10-31T08:21:56;101284.63;;;15.27;100.00
11114;BME280;5610;52.154;9.198;2022-10-31T08:24:42;101277.09;;;15.19;100.00
11114;BME280;5610;52.154;9.198;2022-10-31T08:27:28;101276.31;;;15.43;100.00
11114;BME280;5610;52.154;9.198;2022-10-31T08:30:18;101279.72;;;15.70;100.00
11114;BME280;5610;52.154;9.198;2022-10-31T08:33:20;101275.84;;;15.74;100.00
11114;BME280;5610;52.154;9.198;2022-10-31T08:36:24;101275.47;;;15.91;100.00
11114;BME280;5610;52.154;9.198;2022-10-31T08:39:09;101261.00;;;16.29;100.00
11114;BME280;5610;52.154;9.198;2022-10-31T08:41:56;101267.41;;;16.74;100.00
11114;BME280;5610;52.154;9.198;2022-10-31T08:44:42;101268.69;;;16.93;100.00
11114;BME280;5610;52.154;9.198;2022-10-31T08:47:29;101258.53;;;17.19;100.00
11114;BME280;5610;52.154;9.198;2022-10-31T08:50:14;101258.78;;;17.49;100.00
11114;BME280;5610;52.154;9.198;2022-10-31T08:53:06;101254.94;;;17.86;100.00
11114;BME280;5610;52.154;9.198;2022-10-31T08:55:54;101258.78;;;18.04;100.00
11114;BME280;5610;52.154;9.198;2022-10-31T08:58:42;101254.03;;;18.39;100.00
11114;BME280;5610;52.154;9.198;2022-10-31T09:01:28;101262.50;;;18.56;100.00
11114;BME280;5610;52.154;9.198;2022-10-31T09:04:15;101255.44;;;18.76;100.00
11114;BME280;5610;52.154;9.198;2022-10-31T09:07:00;101252.41;;;18.90;100.00
11114;BME280;5610;52.154;9.198;2022-10-31T09:09:46;101247.31;;;18.97;100.00
11114;BME280;5610;52.154;9.198;2022-10-31T09:12:31;101251.91;;;19.06;100.00
11114;BME280;5610;52.154;9.198;2022-10-31T09:15:27;101248.25;;;19.16;100.00
11114;BME280;5610;52.154;9.198;2022-10-31T09:18:32;101239.63;;;19.23;100.00
11114;BME280;5610;52.154;9.198;2022-10-31T09:21:18;101242.13;;;19.14;100.00
11114;BME280;5610;52.154;9.198;2022-10-31T09:24:05;101242.75;;;19.18;100.00
11114;BME280;5610;52.154;9.198;2022-10-31T09:26:50;101245.53;;;19.07;100.00
11114;BME280;5610;52.154;9.198;2022-10-31T09:29:42;101245.69;;;19.15;100.00
11114;BME280;5610;52.154;9.198;2022-10-31T09:32:29;101238.00;;;19.10;100.00
11114;BME280;5610;52.154;9.198;2022-10-31T09:35:14;101240.75;;;19.20;100.00
11114;BME280;5610;52.154;9.198;2022-10-31T09:38:04;101236.53;;;19.37;100.00
11114;BME280;5610;52.154;9.198;2022-10-31T09:40:55;101232.41;;;19.73;100.00
11114;BME280;5610;52.154;9.198;2022-10-31T09:43:49;101243.00;;;20.15;100.00
11114;BME280;5610;52.154;9.198;2022-10-31T09:46:43;101232.91;;;20.55;100.00
11114;BME280;5610;52.154;9.198;2022-10-31T09:49:48;101230.69;;;20.88;100.00
11114;BME280;5610;52.154;9.198;2022-10-31T09:52:38;101237.09;;;20.97;100.00
11114;BME280;5610;52.154;9.198;2022-10-31T09:55:33;101231.13;;;21.21;100.00
11114;BME280;5610;52.154;9.198;2022-10-31T09:58:20;101230.56;;;21.64;100.00
11114;BME280;5610;52.154;9.198;2022-10-31T10:01:17;101236.03;;;22.00;100.00
11114;BME280;5610;52.154;9.198;2022-10-31T10:04:17;101228.06;;;22.16;100.00
11114;BME280;5610;52.154;9.198;2022-10-31T10:07:27;101232.91;;;21.94;100.00
11114;BME280;5610;52.154;9.198;2022-10-31T10:10:42;101220.34;;;21.48;100.00
11114;BME280;5610;52.154;9.198;2022-10-31T10:13:53;101216.34;;;21.15;100.00
11114;BME280;5610;52.154;9.198;2022-10-31T10:17:00;101228.16;;;20.87;100.00
11114;BME280;5610;52.154;9.198;2022-10-31T10:20:05;101228.44;;;20.64;100.00
11114;BME280;5610;52.154;9.198;2022-10-31T10:23:08;101218.34;;;20.56;100.00
11114;BME280;5610;52.154;9.198;2022-10-31T10:26:01;101224.78;;;20.46;100.00
11114;BME280;5610;52.154;9.198;2022-10-31T10:28:53;101219.66;;;20.52;100.00
11114;BME280;5610;52.154;9.198;2022-10-31T10:31:41;101218.78;;;20.62;100.00
11114;BME280;5610;52.154;9.198;2022-10-31T10:34:33;101207.69;;;21.02;100.00
11114;BME280;5610;52.154;9.198;2022-10-31T10:37:27;101210.19;;;21.96;100.00
11114;BME280;5610;52.154;9.198;2022-10-31T10:40:16;101202.72;;;23.29;100.00
11114;BME280;5610;52.154;9.198;2022-10-31T10:43:20;101213.63;;;24.93;86.72
11114;BME280;5610;52.154;9.198;2022-10-31T10:46:17;101199.50;;;26.83;70.25
11114;BME280;5610;52.154;9.198;2022-10-31T10:49:26;101197.72;;;27.34;66.03
11114;BME280;5610;52.154;9.198;2022-10-31T10:52:22;101197.72;;;28.00;62.83
11114;BME280;5610;52.154;9.198;2022-10-31T10:55:17;101192.94;;;28.09;60.69
11114;BME280;5610;52.154;9.198;2022-10-31T10:58:09;101194.25;;;27.91;60.77
11114;BME280;5610;52.154;9.198;2022-10-31T11:00:55;101180.84;;;27.46;60.75
11114;BME280;5610;52.154;9.198;2022-10-31T11:03:41;101178.38;;;27.51;61.56
11114;BME280;5610;52.154;9.198;2022-10-31T11:06:26;101174.25;;;27.76;60.33
11114;BME280;5610;52.154;9.198;2022-10-31T11:09:11;101177.91;;;27.47;60.13
11114;BME280;5610;52.154;9.198;2022-10-31T11:11:57;101169.38;;;27.06;61.70
11114;BME280;5610;52.154;9.198;2022-10-31T11:14:47;101158.13;;;27.30;60.92
11114;BME280;5610;52.154;9.198;2022-10-31T11:17:34;101165.00;;;26.97;63.14
11114;BME280;5610;52.154;9.198;2022-10-31T11:20:29;101159.09;;;26.41;65.69
11114;BME280;5610;52.154;9.198;2022-10-31T11:23:18;101162.38;;;25.67;69.64
11114;BME280;5610;52.154;9.198;2022-10-31T11:26:05;101146.78;;;25.14;71.87
11114;BME280;5610;52.154;9.198;2022-10-31T11:28:56;101141.59;;;24.80;73.21
11114;BME280;5610;52.154;9.198;2022-10-31T11:31:44;101139.28;;;24.28;78.65
11114;BME280;5610;52.154;9.198;2022-10-31T11:34:32;101135.22;;;23.99;80.99
11114;BME280;5610;52.154;9.198;2022-10-31T11:37:21;101129.75;;;23.67;83.88
11114;BME280;5610;52.154;9.198;2022-10-31T11:40:16;101120.28;;;23.28;85.65
11114;BME280;5610;52.154;9.198;2022-10-31T11:43:02;101112.34;;;22.93;89.46
11114;BME280;5610;52.154;9.198;2022-10-31T11:45:47;101116.44;;;22.71;92.89
11114;BME280;5610;52.154;9.198;2022-10-31T11:48:34;101112.84;;;22.62;93.81
11114;BME280;5610;52.154;9.198;2022-10-31T11:51:20;101109.03;;;22.55;97.81
11114;BME280;5610;52.154;9.198;2022-10-31T11:54:19;101110.47;;;22.93;94.76
11114;BME280;5610;52.154;9.198;2022-10-31T11:57:05;101103.25;;;23.77;88.89
11114;BME280;5610;52.154;9.198;2022-10-31T12:00:20;101101.75;;;26.18;72.48
11114;BME280;5610;52.154;9.198;2022-10-31T12:03:12;101107.31;;;27.21;65.40
11114;BME280;5610;52.154;9.198;2022-10-31T12:06:03;101100.19;;;28.06;60.68
11114;BME280;5610;52.154;9.198;2022-10-31T12:08:50;101094.53;;;28.63;56.38
11114;BME280;5610;52.154;9.198;2022-10-31T12:11:45;101097.09;;;29.61;54.69
11114;BME280;5610;52.154;9.198;2022-10-31T12:14:37;101081.69;;;30.46;50.66
11114;BME280;5610;52.154;9.198;2022-10-31T12:17:36;101078.53;;;30.16;50.24
11114;BME280;5610;52.154;9.198;2022-10-31T12:20:30;101076.41;;;31.15;49.07
11114;BME280;5610;52.154;9.198;2022-10-31T12:23:31;101067.84;;;32.18;46.05
11114;BME280;5610;52.154;9.198;2022-10-31T12:26:23;101071.28;;;32.14;45.78
11114;BME280;5610;52.154;9.198;2022-10-31T12:29:23;101064.44;;;31.66;46.43
11114;BME280;5610;52.154;9.198;2022-10-31T12:32:21;101061.41;;;31.05;47.13
11114;BME280;5610;52.154;9.198;2022-10-31T12:35:25;101047.41;;;30.08;49.01
11114;BME280;5610;52.154;9.198;2022-10-31T12:38:37;101047.63;;;29.54;49.49
11114;BME280;5610;52.154;9.198;2022-10-31T12:41:44;101038.69;;;29.45;49.65
11114;BME280;5610;52.154;9.198;2022-10-31T12:44:50;101040.25;;;30.27;48.48
11114;BME280;5610;52.154;9.198;2022-10-31T12:50:58;101024.53;;;31.06;47.08
11114;BME280;5610;52.154;9.198;2022-10-31T12:53:59;101021.22;;;30.32;47.12
11114;BME280;5610;52.154;9.198;2022-10-31T12:57:01;101009.81;;;30.02;48.49
11114;BME280;5610;52.154;9.198;2022-10-31T12:59:52;101001.97;;;30.06;48.34
11114;BME280;5610;52.154;9.198;2022-10-31T13:02:44;101000.91;;;30.33;47.95
11114;BME280;5610;52.154;9.198;2022-10-31T13:05:35;100992.13;;;30.63;47.80
11114;BME280;5610;52.154;9.198;2022-10-31T13:08:25;100992.72;;;30.78;47.42
11114;BME280;5610;52.154;9.198;2022-10-31T13:11:15;100991.28;;;31.07;47.09
11114;BME280;5610;52.154;9.198;2022-10-31T13:14:06;100979.53;;;31.57;45.44
11114;BME280;5610;52.154;9.198;2022-10-31T13:16:54;100974.84;;;32.32;43.81
11114;BME280;5610;52.154;9.198;2022-10-31T13:19:43;100961.31;;;32.61;43.60
11114;BME280;5610;52.154;9.198;2022-10-31T13:22:31;100960.88;;;32.64;43.31
11114;BME280;5610;52.154;9.198;2022-10-31T13:25:23;100949.03;;;32.93;43.01
11114;BME280;5610;52.154;9.198;2022-10-31T13:28:23;100948.72;;;33.43;42.01
11114;BME280;5610;52.154;9.198;2022-10-31T13:31:10;100943.78;;;33.69;41.74
11114;BME280;5610;52.154;9.198;2022-10-31T13:33:58;100937.75;;;33.37;41.53
11114;BME280;5610;52.154;9.198;2022-10-31T13:36:52;100933.97;;;33.08;42.52
11114;BME280;5610;52.154;9.198;2022-10-31T13:39:52;100924.53;;;32.67;42.74
11114;BME280;5610;52.154;9.198;2022-10-31T13:42:52;100925.31;;;31.82;44.24
11114;BME280;5610;52.154;9.198;2022-10-31T13:45:49;100917.50;;;31.29;45.21
11114;BME280;5610;52.154;9.198;2022-10-31T13:48:38;100914.03;;;30.64;47.07
11114;BME280;5610;52.154;9.198;2022-10-31T13:51:26;100914.50;;;30.03;48.34
11114;BME280;5610;52.154;9.198;2022-10-31T13:54:20;100916.22;;;29.31;49.80
11114;BME280;5610;52.154;9.198;2022-10-31T13:57:12;100911.03;;;28.68;51.97
11114;BME280;5610;52.154;9.198;2022-10-31T14:00:02;100903.91;;;28.26;52.83
11114;BME280;5610;52.154;9.198;2022-10-31T14:02:57;100902.88;;;27.36;54.76
11114;BME280;5610;52.154;9.198;2022-10-31T14:05:51;100907.84;;;26.69;58.14
11114;BME280;5610;52.154;9.198;2022-10-31T14:08:41;100906.59;;;26.06;60.41
11114;BME280;5610;52.154;9.198;2022-10-31T14:11:32;100903.59;;;25.33;63.83
11114;BME280;5610;52.154;9.198;2022-10-31T14:14:18;100898.66;;;24.60;68.73
11114;BME280;5610;52.154;9.198;2022-10-31T14:17:05;100887.63;;;24.14;72.85
11114;BME280;5610;52.154;9.198;2022-10-31T14:20:19;100895.91;;;23.73;78.51
11114;BME280;5610;52.154;9.198;2022-10-31T14:23:33;100894.44;;;23.22;85.45
11114;BME280;5610;52.154;9.198;2022-10-31T14:26:32;100893.22;;;22.84;89.86
11114;BME280;5610;52.154;9.198;2022-10-31T14:29:24;100892.25;;;22.34;94.35
11114;BME280;5610;52.154;9.198;2022-10-31T14:32:19;100883.53;;;22.14;96.98
11114;BME280;5610;52.154;9.198;2022-10-31T14:35:14;100884.19;;;21.82;100.00
11114;BME280;5610;52.154;9.198;2022-10-31T14:38:10;100886.81;;;21.66;100.00
11114;BME280;5610;52.154;9.198;2022-10-31T14:41:14;100877.88;;;21.48;100.00
11114;BME280;5610;52.154;9.198;2022-10-31T14:44:17;100871.78;;;21.28;100.00
11114;BME280;5610;52.154;9.198;2022-10-31T14:47:17;100867.69;;;21.24;100.00
11114;BME280;5610;52.154;9.198;2022-10-31T14:50:27;100871.03;;;21.00;100.00
11114;BME280;5610;52.154;9.198;2022-10-31T14:53:20;100857.56;;;20.90;100.00
11114;BME280;5610;52.154;9.198;2022-10-31T14:56:09;100855.88;;;20.71;100.00
11114;BME280;5610;52.154;9.198;2022-10-31T14:58:57;100848.78;;;20.52;100.00
11114;BME280;5610;52.154;9.198;2022-10-31T15:01:54;100848.38;;;20.20;100.00
11114;BME280;5610;52.154;9.198;2022-10-31T15:04:41;100844.72;;;20.11;100.00